Time;durP1;ratioP1;P1;durP2;ratioP2;P2;SDS_P1;SDS_P2;PMS_P1;PMS_P2;Temp;Humidity;BMP_temperature;BMP_pressure;BME280_temperature;BME280_humidity;BME280_pressure;Samples;Min_cycle;Max_cycle;Signal;HPM_P1;HPM_P2
2022/01/22 00:00:32;;;;;;;15.82;8.10;;;0.70;99.90;;;;;;5029694;28;20065;-69
2022/01/22 00:03:38;;;;;;;18.33;8.90;;;0.70;99.90;;;;;;5031006;28;20495;-68
2022/01/22 00:06:42;;;;;;;18.67;9.02;;;0.70;99.90;;;;;;5034430;28;20033;-68
2022/01/22 00:09:51;;;;;;;20.83;10.55;;;0.80;99.90;;;;;;5033384;28;20503;-68
2022/01/22 00:13:08;;;;;;;19.15;10.52;;;0.80;99.90;;;;;;5033965;28;20045;-68
2022/01/22 00:16:12;;;;;;;17.63;8.95;;;0.80;99.90;;;;;;5033473;28;20053;-68
2022/01/22 00:19:17;;;;;;;17.75;9.77;;;0.70;99.90;;;;;;5033505;28;20495;-68
2022/01/22 00:22:25;;;;;;;16.35;8.90;;;0.60;99.90;;;;;;5034009;28;20048;-68
2022/01/22 00:25:30;;;;;;;20.52;9.40;;;0.60;99.90;;;;;;5033625;28;20041;-68
2022/01/22 00:28:34;;;;;;;15.32;8.27;;;0.60;99.90;;;;;;5033562;28;20492;-68
2022/01/22 00:31:39;;;;;;;27.02;13.15;;;0.50;99.90;;;;;;5033816;28;20040;-68
2022/01/22 00:34:44;;;;;;;20.27;11.85;;;0.50;99.90;;;;;;5033782;28;20037;-68
2022/01/22 00:37:51;;;;;;;11.77;5.88;;;0.50;99.90;;;;;;5033371;28;20048;-68
2022/01/22 00:40:56;;;;;;;8.52;4.45;;;0.50;99.90;;;;;;5033635;28;20041;-68
2022/01/22 00:44:00;;;;;;;10.10;3.00;;;0.40;99.90;;;;;;5032484;28;20048;-69
2022/01/22 00:47:05;;;;;;;11.32;5.35;;;0.30;99.90;;;;;;5033560;28;20392;-68
2022/01/22 00:50:15;;;;;;;14.43;6.00;;;0.30;99.90;;;;;;5032209;28;20060;-68
2022/01/22 00:53:19;;;;;;;10.52;4.60;;;0.30;99.90;;;;;;5033342;28;20388;-68
2022/01/22 00:56:24;;;;;;;10.45;4.30;;;0.30;99.90;;;;;;5033280;28;20049;-68
2022/01/22 00:59:27;;;;;;;21.90;8.98;;;0.30;99.90;;;;;;5032908;28;20049;-68
2022/01/22 01:02:32;;;;;;;24.20;8.52;;;0.20;99.90;;;;;;5033183;28;20044;-68
2022/01/22 01:05:37;;;;;;;8.93;4.28;;;0.20;99.90;;;;;;5033111;28;20511;-68
2022/01/22 01:08:42;;;;;;;9.27;4.72;;;0.30;99.90;;;;;;5031921;28;20041;-68
2022/01/22 01:11:52;;;;;;;10.95;4.68;;;0.30;99.90;;;;;;5031795;28;20037;-69
2022/01/22 01:15:15;;;;;;;12.13;4.20;;;0.20;99.90;;;;;;5032238;28;20056;-68
2022/01/22 01:35:17;;;;;;;8.13;3.58;;;-0.10;99.90;;;;;;5031601;28;20030;-68
2022/01/22 01:38:23;;;;;;;7.85;3.63;;;-0.10;99.90;;;;;;5042819;28;20049;-68
2022/01/22 01:44:50;;;;;;;12.35;6.57;;;-0.20;99.90;;;;;;5031651;28;20044;-67
2022/01/22 01:48:12;;;;;;;11.27;4.55;;;-0.30;99.90;;;;;;5031083;28;20044;-67
2022/01/22 01:51:16;;;;;;;17.42;6.30;;;-0.40;99.90;;;;;;5031142;28;20056;-67
2022/01/22 01:54:34;;;;;;;17.65;7.32;;;-0.50;99.90;;;;;;5031238;28;20037;-67
2022/01/22 01:57:41;;;;;;;17.33;6.68;;;-0.50;99.90;;;;;;5031617;28;20044;-68
2022/01/22 02:00:51;;;;;;;;;;;-0.40;99.90;;;;;;5043755;28;20033;-67
2022/01/22 02:03:56;;;;;;;17.13;5.30;;;-0.40;99.90;;;;;;5031267;28;19916;-67
2022/01/22 02:07:05;;;;;;;17.17;10.70;;;-0.50;99.90;;;;;;5031096;28;20040;-67
2022/01/22 02:10:20;;;;;;;20.20;5.57;;;-0.40;99.90;;;;;;5042318;28;20044;-67
2022/01/22 02:13:43;;;;;;;11.85;5.65;;;-0.40;99.90;;;;;;5030771;28;20072;-67
2022/01/22 02:23:45;;;;;;;13.55;6.18;;;-0.60;99.90;;;;;;5030680;28;20045;-67
2022/01/22 02:26:50;;;;;;;16.98;5.63;;;-0.50;99.90;;;;;;5029574;28;20040;-67
2022/01/22 02:30:01;;;;;;;16.98;5.78;;;-0.60;99.90;;;;;;5030361;28;20068;-67
2022/01/22 02:33:56;;;;;;;13.70;4.97;;;-0.60;99.90;;;;;;5041819;28;20057;-67
2022/01/22 02:37:06;;;;;;;13.60;5.07;;;-0.60;99.90;;;;;;5031029;28;20060;-67
2022/01/22 02:40:16;;;;;;;12.80;5.05;;;-0.60;99.90;;;;;;5041482;28;20044;-68
2022/01/22 02:43:21;;;;;;;13.38;5.40;;;-0.50;99.90;;;;;;5030468;28;20060;-67
2022/01/22 02:46:27;;;;;;;11.93;4.13;;;-0.50;99.90;;;;;;5030343;28;20404;-67
2022/01/22 02:49:33;;;;;;;11.50;3.63;;;-0.50;99.90;;;;;;5029786;28;20526;-67
2022/01/22 02:52:38;;;;;;;9.85;4.70;;;-0.50;99.90;;;;;;5029854;28;20044;-67
2022/01/22 02:55:44;;;;;;;12.18;5.40;;;-0.50;99.90;;;;;;5030065;28;20392;-67
2022/01/22 02:58:48;;;;;;;12.30;5.30;;;-0.30;99.90;;;;;;5029552;28;20578;-67
2022/01/22 03:01:54;;;;;;;12.70;5.40;;;-0.20;99.90;;;;;;5030098;28;20491;-67
2022/01/22 03:05:00;;;;;;;13.02;5.75;;;-0.20;99.90;;;;;;5029905;28;20048;-67
2022/01/22 03:08:08;;;;;;;16.90;7.38;;;-0.20;99.90;;;;;;5030168;28;20449;-67
2022/01/22 03:11:23;;;;;;;17.80;7.22;;;-0.10;99.90;;;;;;5029758;28;20396;-67
2022/01/22 03:27:46;;;;;;;12.73;6.93;;;0.10;99.90;;;;;;5029654;28;20036;-67
2022/01/22 03:30:51;;;;;;;17.13;8.02;;;0.00;99.90;;;;;;5029629;28;20044;-67
2022/01/22 03:33:57;;;;;;;19.17;8.07;;;-0.20;99.90;;;;;;5041046;28;20052;-67
2022/01/22 03:37:01;;;;;;;17.83;7.35;;;-0.30;99.90;;;;;;5030182;28;20056;-67
2022/01/22 03:40:06;;;;;;;15.43;6.88;;;-0.40;99.90;;;;;;5028943;28;20040;-67
2022/01/22 03:43:10;;;;;;;16.92;7.65;;;-0.40;99.90;;;;;;5029209;28;20043;-67
2022/01/22 03:46:14;;;;;;;19.38;6.43;;;-0.40;99.90;;;;;;5030313;28;20048;-67
2022/01/22 03:49:19;;;;;;;15.73;7.07;;;-0.50;99.90;;;;;;5028887;28;20412;-67
2022/01/22 03:52:23;;;;;;;17.35;7.68;;;-0.50;99.90;;;;;;5029512;28;20048;-67
2022/01/22 03:55:48;;;;;;;18.38;7.22;;;-0.40;99.90;;;;;;5029451;28;20052;-67
2022/01/22 03:59:07;;;;;;;18.55;6.43;;;-0.40;99.90;;;;;;5029559;28;20049;-68
2022/01/22 04:09:21;;;;;;;8.65;3.88;;;-0.40;99.90;;;;;;5017002;28;20048;-67
2022/01/22 04:12:36;;;;;;;8.90;3.92;;;-0.40;99.90;;;;;;5028923;28;20424;-67
2022/01/22 04:15:41;;;;;;;8.73;3.92;;;-0.40;99.90;;;;;;5030070;28;20380;-67
2022/01/22 04:25:34;;;;;;;14.00;4.28;;;0.00;99.90;;;;;;5030281;28;19912;-67
2022/01/22 04:28:39;;;;;;;9.63;4.57;;;0.00;99.90;;;;;;5028695;28;20049;-68
2022/01/22 04:31:43;;;;;;;12.40;5.15;;;-0.10;99.90;;;;;;5029938;28;20383;-67
2022/01/22 04:34:47;;;;;;;17.52;5.82;;;-0.20;99.90;;;;;;5029816;28;20388;-67
2022/01/22 04:37:51;;;;;;;12.27;6.07;;;-0.50;99.90;;;;;;5029803;28;20040;-67
2022/01/22 04:40:55;;;;;;;15.95;7.20;;;-0.80;99.90;;;;;;5029847;28;20048;-67
2022/01/22 04:44:03;;;;;;;16.83;6.38;;;-0.90;99.90;;;;;;5029722;28;20048;-67
2022/01/22 04:56:58;;;;;;;22.10;9.25;;;-1.10;99.90;;;;;;5032676;28;20068;-67
2022/01/22 05:00:13;;;;;;;29.75;10.00;;;-1.10;99.90;;;;;;5032303;28;20032;-67
2022/01/22 05:03:36;;;;;;;17.48;8.05;;;-0.90;99.90;;;;;;5033091;28;20056;-67
2022/01/22 05:07:03;;;;;;;18.42;6.68;;;-0.90;99.90;;;;;;5033344;28;20045;-67
2022/01/22 05:10:28;;;;;;;18.67;7.18;;;-1.30;99.90;;;;;;5023655;28;20523;-67
2022/01/22 05:13:32;;;;;;;14.20;5.57;;;-1.40;99.90;;;;;;5031753;28;20048;-67
2022/01/22 05:16:38;;;;;;;20.17;9.45;;;-1.50;99.90;;;;;;5033059;28;20040;-67
2022/01/22 05:25:58;;;;;;;10.02;5.15;;;-1.70;99.90;;;;;;5031583;28;20040;-67
2022/01/22 05:29:56;;;;;;;7.88;3.20;;;-1.60;99.90;;;;;;5031108;28;20045;-67
2022/01/22 05:37:03;;;;;;;10.05;4.85;;;-1.60;99.90;;;;;;5031709;28;20040;-69
2022/01/22 05:40:08;;;;;;;20.10;7.30;;;-1.70;99.90;;;;;;5031658;28;20044;-67
2022/01/22 05:43:13;;;;;;;12.35;5.00;;;-1.80;99.90;;;;;;5031648;28;20499;-66
2022/01/22 05:46:17;;;;;;;14.65;6.13;;;-1.80;99.90;;;;;;5042999;28;20052;-67
2022/01/22 05:49:23;;;;;;;29.08;6.78;;;-1.80;99.90;;;;;;5031619;28;20049;-67
2022/01/22 05:52:37;;;;;;;13.02;5.53;;;-1.70;99.90;;;;;;5032352;28;20392;-66
2022/01/22 06:02:33;;;;;;;12.52;7.10;;;-1.80;99.90;;;;;;5030986;28;20045;-66
2022/01/22 06:05:39;;;;;;;18.90;8.90;;;-1.80;99.90;;;;;;5030945;28;20523;-67
2022/01/22 06:08:53;;;;;;;19.38;9.18;;;-1.80;99.90;;;;;;5030713;28;20508;-67
2022/01/22 06:15:14;;;;;;;24.08;10.45;;;-2.00;99.90;;;;;;5031111;28;20053;-67
2022/01/22 06:18:48;;;;;;;35.13;13.90;;;-2.10;99.90;;;;;;5031617;28;20052;-67
2022/01/22 06:21:53;;;;;;;28.85;13.07;;;-2.10;99.90;;;;;;5031024;28;20060;-66
2022/01/22 06:24:57;;;;;;;21.98;10.60;;;-2.10;99.90;;;;;;5030422;28;20499;-66
2022/01/22 06:28:02;;;;;;;25.83;11.68;;;-2.20;99.90;;;;;;5030581;28;20048;-66
2022/01/22 06:31:07;;;;;;;26.33;12.73;;;-2.20;99.90;;;;;;5030495;28;20033;-66
2022/01/22 06:34:12;;;;;;;33.30;14.43;;;-2.10;99.90;;;;;;5042153;28;20044;-66
2022/01/22 06:37:18;;;;;;;32.33;13.80;;;-2.10;99.90;;;;;;5030701;28;20052;-66
2022/01/22 06:44:06;;;;;;;34.63;15.48;;;-1.80;99.90;;;;;;5031432;28;20119;-66
2022/01/22 06:47:20;;;;;;;33.35;14.20;;;-1.90;99.90;;;;;;5020501;28;20052;-66
2022/01/22 06:50:37;;;;;;;31.58;14.27;;;-1.90;99.90;;;;;;5030324;28;20048;-66
2022/01/22 06:53:43;;;;;;;32.30;14.95;;;-1.80;99.90;;;;;;5018866;28;20502;-66
2022/01/22 06:56:47;;;;;;;36.03;15.20;;;-1.80;99.90;;;;;;5041340;28;20388;-66
2022/01/22 06:59:54;;;;;;;23.95;10.05;;;-1.60;99.90;;;;;;5029226;28;20040;-66
2022/01/22 07:02:57;;;;;;;25.10;11.02;;;-1.60;99.90;;;;;;5030872;28;20048;-66
2022/01/22 07:06:02;;;;;;;15.70;6.70;;;-1.50;99.90;;;;;;5029949;28;20056;-66
2022/01/22 07:09:09;;;;;;;17.42;7.55;;;-1.40;99.90;;;;;;5029392;28;20491;-66
2022/01/22 07:12:16;;;;;;;14.48;6.90;;;-1.30;99.90;;;;;;5029630;28;20040;-66
2022/01/22 07:15:21;;;;;;;15.00;6.25;;;-0.20;99.90;;;;;;5030375;28;20052;-66
2022/01/22 07:18:28;;;;;;;18.70;9.57;;;3.10;99.90;;;;;;5029373;28;20388;-66
2022/01/22 07:21:35;;;;;;;17.75;9.13;;;6.40;99.90;;;;;;5029515;28;20048;-66
2022/01/22 07:24:41;;;;;;;14.93;8.38;;;9.10;99.90;;;;;;5029639;28;20044;-66
2022/01/22 07:27:47;;;;;;;14.95;7.45;;;11.50;99.90;;;;;;5029464;28;20044;-67
2022/01/22 07:30:52;;;;;;;12.63;6.60;;;13.50;96.20;;;;;;5028987;28;20043;-67
2022/01/22 07:33:57;;;;;;;17.48;8.02;;;15.30;91.90;;;;;;5029428;28;20507;-67
2022/01/22 07:37:02;;;;;;;19.65;9.55;;;15.60;84.50;;;;;;5030043;28;20408;-67
2022/01/22 07:40:10;;;;;;;16.17;10.10;;;12.80;84.80;;;;;;5028901;28;20040;-67
2022/01/22 07:43:26;;;;;;;18.58;10.20;;;12.20;90.10;;;;;;5041363;28;20048;-67
2022/01/22 07:46:49;;;;;;;18.25;9.68;;;10.00;92.20;;;;;;5029611;28;20041;-67
2022/01/22 07:49:58;;;;;;;13.60;8.70;;;10.30;93.20;;;;;;5028947;28;20064;-68
2022/01/22 07:53:03;;;;;;;16.00;8.70;;;13.00;92.20;;;;;;5018365;28;20045;-68
2022/01/22 07:56:07;;;;;;;14.10;8.30;;;15.20;90.00;;;;;;5029789;28;20056;-68
2022/01/22 07:59:11;;;;;;;14.60;8.57;;;16.60;84.90;;;;;;5028944;28;20049;-68
2022/01/22 08:02:21;;;;;;;12.27;8.43;;;16.90;84.10;;;;;;5029306;28;20048;-68
2022/01/22 08:05:44;;;;;;;15.15;7.97;;;17.80;81.30;;;;;;5030521;28;20048;-69
2022/01/22 08:09:07;;;;;;;12.07;8.10;;;19.00;78.80;;;;;;5031598;28;20516;-68
2022/01/22 08:12:44;;;;;;;14.48;7.57;;;20.10;75.90;;;;;;5037070;28;20044;-68
2022/01/22 08:15:51;;;;;;;10.25;7.40;;;21.60;73.40;;;;;;5032259;28;20036;-69
2022/01/22 08:18:55;;;;;;;9.55;6.55;;;22.10;69.20;;;;;;5030643;28;20056;-69
2022/01/22 08:21:59;;;;;;;8.57;6.05;;;22.50;65.10;;;;;;5029484;28;20483;-69
2022/01/22 08:25:23;;;;;;;9.27;5.32;;;21.70;64.80;;;;;;5031159;28;20053;-68
2022/01/22 08:32:09;;;;;;;9.55;5.13;;;21.60;64.20;;;;;;5032065;28;20045;-69
2022/01/22 08:38:36;;;;;;;9.25;5.10;;;23.10;59.60;;;;;;5032232;28;20041;-67
2022/01/22 08:41:41;;;;;;;9.68;5.45;;;24.00;58.30;;;;;;5032399;28;20048;-68
2022/01/22 08:44:44;;;;;;;7.55;3.88;;;24.00;57.70;;;;;;5033619;28;20066;-67
2022/01/22 08:47:52;;;;;;;7.63;5.28;;;25.00;55.70;;;;;;5032512;28;20053;-68
2022/01/22 08:50:57;;;;;;;10.27;7.65;;;26.40;55.30;;;;;;5032611;28;20044;-68
2022/01/22 08:54:01;;;;;;;14.00;8.55;;;26.30;54.10;;;;;;5032222;28;20392;-68
2022/01/22 08:57:07;;;;;;;11.70;7.82;;;20.00;58.70;;;;;;5032039;28;20056;-68
2022/01/22 09:00:19;;;;;;;11.30;7.65;;;19.80;61.60;;;;;;5031911;28;20531;-68
2022/01/22 09:03:35;;;;;;;12.40;7.53;;;22.50;60.00;;;;;;5043853;28;20049;-68
2022/01/22 09:06:40;;;;;;;9.85;6.35;;;23.00;57.80;;;;;;5032738;28;20064;-68
2022/01/22 09:09:53;;;;;;;8.93;6.45;;;23.70;58.00;;;;;;5031671;28;20044;-69
2022/01/22 09:13:03;;;;;;;12.35;5.90;;;24.60;56.20;;;;;;5031893;28;20044;-69
2022/01/22 09:16:13;;;;;;;8.27;5.45;;;25.90;55.70;;;;;;5032084;28;20084;-69
2022/01/22 09:19:18;;;;;;;9.45;5.22;;;26.40;54.40;;;;;;5031736;28;20048;-69
2022/01/22 09:22:22;;;;;;;10.77;5.95;;;27.20;53.60;;;;;;5033020;28;20388;-69
2022/01/22 09:25:28;;;;;;;7.72;5.38;;;27.70;52.80;;;;;;5031990;28;20040;-69
2022/01/22 09:28:34;;;;;;;7.35;5.45;;;28.80;53.50;;;;;;5031979;28;20052;-69
2022/01/22 09:31:38;;;;;;;7.72;5.60;;;29.10;53.60;;;;;;5019663;28;20052;-69
2022/01/22 09:34:46;;;;;;;6.57;4.90;;;30.30;52.60;;;;;;5031605;28;20048;-69
2022/01/22 09:38:05;;;;;;;7.65;5.00;;;30.30;50.20;;;;;;5031236;28;20045;-69
2022/01/22 09:41:44;;;;;;;6.20;4.90;;;30.60;50.80;;;;;;5033022;28;20048;-69
2022/01/22 09:45:04;;;;;;;6.55;4.53;;;31.30;50.00;;;;;;5031690;28;20040;-69
2022/01/22 09:48:33;;;;;;;4.85;2.80;;;31.60;48.50;;;;;;5029037;28;20511;-70
2022/01/22 09:51:51;;;;;;;5.30;3.20;;;31.90;46.10;;;;;;5033317;28;20048;-69
2022/01/22 09:55:18;;;;;;;3.58;2.80;;;32.40;46.00;;;;;;5029107;28;20044;-70
2022/01/22 09:58:31;;;;;;;6.90;3.30;;;33.10;45.00;;;;;;5032118;28;20040;-70
2022/01/22 10:02:15;;;;;;;5.38;3.45;;;33.10;45.20;;;;;;5031006;28;20495;-70
2022/01/22 10:05:30;;;;;;;7.30;4.00;;;32.70;44.10;;;;;;5031783;28;20404;-69
2022/01/22 10:09:09;;;;;;;4.50;2.88;;;32.30;43.80;;;;;;5032172;28;20064;-70
2022/01/22 10:12:45;;;;;;;11.40;5.82;;;32.90;42.00;;;;;;5031726;28;20044;-70
2022/01/22 10:16:10;;;;;;;8.00;6.03;;;30.90;45.40;;;;;;5031705;28;20040;-69
2022/01/22 10:19:24;;;;;;;10.40;5.93;;;28.00;47.60;;;;;;5031414;28;20048;-69
2022/01/22 10:22:43;;;;;;;8.75;6.05;;;29.00;48.80;;;;;;5031240;28;20049;-70
2022/01/22 10:25:55;;;;;;;8.55;5.90;;;29.40;48.60;;;;;;5031484;28;20040;-70
2022/01/22 10:29:09;;;;;;;10.65;5.72;;;29.70;48.40;;;;;;5030457;28;20044;-70
2022/01/22 10:32:18;;;;;;;11.32;5.07;;;30.50;48.40;;;;;;5030899;28;20507;-70
2022/01/22 10:35:42;;;;;;;7.15;4.93;;;31.50;47.90;;;;;;5042406;28;20041;-70
2022/01/22 10:39:07;;;;;;;7.30;4.93;;;32.00;46.90;;;;;;5030031;28;20044;-70
2022/01/22 10:42:23;;;;;;;10.85;5.28;;;32.50;46.60;;;;;;5031245;28;20049;-70
2022/01/22 10:45:31;;;;;;;6.95;4.88;;;32.80;46.40;;;;;;5031259;28;20041;-70
2022/01/22 10:48:42;;;;;;;7.35;4.50;;;33.60;46.20;;;;;;5029536;28;20057;-71
2022/01/22 10:52:04;;;;;;;6.57;4.90;;;33.20;45.30;;;;;;5031226;28;20041;-70
2022/01/22 10:55:08;;;;;;;8.10;4.47;;;33.20;45.30;;;;;;5031140;28;20048;-70
2022/01/22 10:58:12;;;;;;;5.30;4.03;;;33.30;44.40;;;;;;5030503;28;20044;-70
2022/01/22 11:01:21;;;;;;;5.30;3.20;;;33.30;44.00;;;;;;5031896;28;20060;-70
2022/01/22 11:04:32;;;;;;;5.47;3.10;;;33.90;43.40;;;;;;5030922;28;20392;-70
2022/01/22 11:07:36;;;;;;;3.13;2.42;;;33.80;42.70;;;;;;5030725;28;20041;-70
2022/01/22 11:10:43;;;;;;;2.75;1.85;;;33.80;41.10;;;;;;5030992;28;20048;-70
2022/01/22 11:13:48;;;;;;;2.35;1.63;;;33.60;41.00;;;;;;5030885;28;20052;-70
2022/01/22 11:16:54;;;;;;;2.92;1.60;;;33.60;39.70;;;;;;5031080;28;20052;-70
2022/01/22 11:20:00;;;;;;;4.15;1.60;;;33.60;39.40;;;;;;5030691;28;20051;-70
2022/01/22 11:23:06;;;;;;;3.35;1.67;;;33.30;39.80;;;;;;5030504;28;20044;-70
2022/01/22 11:26:12;;;;;;;2.78;1.33;;;33.10;39.40;;;;;;5030767;28;20066;-70
2022/01/22 11:29:17;;;;;;;2.50;1.77;;;33.40;39.40;;;;;;5030539;28;20060;-69
2022/01/22 11:32:34;;;;;;;4.13;1.75;;;33.40;39.30;;;;;;5029302;28;20060;-70
2022/01/22 11:36:02;;;;;;;1.88;1.42;;;34.50;40.20;;;;;;5029920;28;20033;-70
2022/01/22 11:39:07;;;;;;;3.15;1.52;;;34.50;38.40;;;;;;5028834;28;20056;-70
2022/01/22 11:42:11;;;;;;;4.05;1.60;;;34.50;39.00;;;;;;5030236;28;20380;-70
2022/01/22 11:45:28;;;;;;;2.00;1.40;;;34.70;39.40;;;;;;5030045;28;20049;-71
2022/01/22 11:48:33;;;;;;;3.22;1.27;;;35.40;38.30;;;;;;5029607;28;20508;-70
2022/01/22 11:51:37;;;;;;;1.70;1.23;;;35.00;38.00;;;;;;5030303;28;20048;-70
2022/01/22 11:54:59;;;;;;;3.65;1.38;;;34.70;38.50;;;;;;5030676;28;20313;-70
2022/01/22 11:58:06;;;;;;;1.90;1.40;;;34.70;37.60;;;;;;5017961;28;20416;-70
2022/01/22 12:01:10;;;;;;;1.73;1.10;;;34.50;37.60;;;;;;5034926;28;20044;-70
2022/01/22 12:04:14;;;;;;;5.97;1.30;;;33.80;38.10;;;;;;5044612;28;20064;-70
2022/01/22 12:07:20;;;;;;;2.65;1.20;;;34.20;37.80;;;;;;5034267;28;20057;-69
2022/01/22 12:14:26;;;;;;;4.30;1.30;;;33.80;36.60;;;;;;5033744;28;20044;-69
2022/01/22 12:18:10;;;;;;;2.28;1.48;;;34.20;36.70;;;;;;5031568;28;20372;-69
2022/01/22 12:21:41;;;;;;;2.38;1.63;;;34.20;35.80;;;;;;5033914;28;20044;-70
2022/01/22 12:24:44;;;;;;;3.08;1.40;;;33.50;35.90;;;;;;5033511;28;20045;-70
2022/01/22 12:27:53;;;;;;;2.78;1.63;;;33.10;36.90;;;;;;5034475;28;20298;-70
2022/01/22 12:31:05;;;;;;;3.17;1.77;;;33.20;35.40;;;;;;5033562;28;20388;-69
2022/01/22 12:34:09;;;;;;;2.47;1.90;;;33.00;35.80;;;;;;5034063;28;20045;-70
2022/01/22 12:37:19;;;;;;;2.60;1.70;;;32.30;36.70;;;;;;5033892;28;20049;-70
2022/01/22 12:40:31;;;;;;;2.35;1.75;;;31.90;36.20;;;;;;5033532;28;20052;-70
2022/01/22 12:43:37;;;;;;;3.95;1.90;;;32.30;36.80;;;;;;5033492;28;20045;-69
2022/01/22 12:46:44;;;;;;;2.38;1.80;;;31.10;35.80;;;;;;5033877;28;20483;-69
2022/01/22 12:50:04;;;;;;;2.53;1.80;;;30.40;35.50;;;;;;5032318;28;20499;-68
2022/01/22 12:53:11;;;;;;;2.10;1.63;;;23.50;37.30;;;;;;5033411;28;20068;-69
2022/01/22 12:59:51;;;;;;;3.50;1.98;;;26.30;37.40;;;;;;5033062;28;20390;-68
2022/01/22 13:02:58;;;;;;;3.72;2.03;;;26.50;37.10;;;;;;5032788;28;20123;-68
2022/01/22 13:06:03;;;;;;;2.88;1.77;;;25.90;36.40;;;;;;5033061;28;20040;-68
2022/01/22 13:09:47;;;;;;;3.38;2.05;;;26.30;38.80;;;;;;5032747;28;20041;-69
2022/01/22 13:12:53;;;;;;;4.95;2.20;;;26.80;38.40;;;;;;5032716;28;20416;-69
2022/01/22 13:16:03;;;;;;;3.33;2.00;;;28.20;37.90;;;;;;5032076;28;20033;-68
2022/01/22 13:19:08;;;;;;;3.43;2.17;;;24.10;37.30;;;;;;5032733;28;20044;-68
2022/01/22 13:22:14;;;;;;;2.78;2.03;;;25.20;39.30;;;;;;5032938;28;20040;-69
2022/01/22 13:25:19;;;;;;;2.45;2.05;;;27.30;39.40;;;;;;5032871;28;20112;-69
2022/01/22 13:28:28;;;;;;;8.32;6.38;;;28.80;38.00;;;;;;5032414;28;20036;-68
2022/01/22 13:31:33;;;;;;;4.22;3.83;;;29.00;38.30;;;;;;5031254;28;20044;-69
2022/01/22 13:35:10;;;;;;;3.47;2.20;;;29.80;37.20;;;;;;5032597;28;20086;-69
2022/01/22 13:48:36;;;;;;;4.22;2.28;;;29.30;37.30;;;;;;5032001;28;20392;-68
2022/01/22 13:51:40;;;;;;;3.65;2.70;;;28.50;37.90;;;;;;5042789;28;20048;-69
2022/01/22 13:54:53;;;;;;;2.67;2.10;;;28.50;38.30;;;;;;5032668;28;20428;-69
2022/01/22 13:57:57;;;;;;;3.72;2.83;;;28.90;37.30;;;;;;5032275;28;20052;-69
2022/01/22 14:01:27;;;;;;;3.83;2.47;;;28.20;38.10;;;;;;5032029;28;20044;-69
2022/01/22 14:04:44;;;;;;;4.07;2.33;;;27.70;38.50;;;;;;5031260;28;20045;-68
2022/01/22 14:07:59;;;;;;;6.18;4.20;;;27.10;38.90;;;;;;5033158;28;20052;-68
2022/01/22 14:11:04;;;;;;;4.53;3.03;;;27.00;39.50;;;;;;5032081;28;20037;-69
2022/01/22 14:14:08;;;;;;;4.05;2.60;;;26.60;39.10;;;;;;5031954;28;20068;-69
2022/01/22 14:17:14;;;;;;;3.90;2.70;;;25.60;40.30;;;;;;5031062;28;20391;-68
2022/01/22 14:20:26;;;;;;;4.28;2.88;;;25.00;40.50;;;;;;5031680;28;20056;-68
2022/01/22 14:23:32;;;;;;;3.25;2.53;;;24.80;41.50;;;;;;5031932;28;20044;-68
2022/01/22 14:26:39;;;;;;;5.90;3.00;;;24.20;41.60;;;;;;5031904;28;20045;-68
2022/01/22 14:29:44;;;;;;;4.07;2.58;;;24.00;41.70;;;;;;5031481;28;20041;-69
2022/01/22 14:32:58;;;;;;;7.22;5.15;;;23.90;41.60;;;;;;5029978;28;20381;-68
2022/01/22 14:36:03;;;;;;;6.13;2.70;;;23.80;41.80;;;;;;5031975;28;20052;-68
2022/01/22 14:46:02;;;;;;;4.63;3.13;;;22.00;43.50;;;;;;5031289;28;20627;-68
2022/01/22 14:49:06;;;;;;;7.15;3.42;;;22.20;44.40;;;;;;5031026;28;20049;-68
2022/01/22 14:52:12;;;;;;;6.50;3.17;;;21.90;44.50;;;;;;5041747;28;20044;-68
2022/01/22 14:55:16;;;;;;;4.70;2.88;;;20.90;45.40;;;;;;5030697;28;20040;-67
2022/01/22 14:58:21;;;;;;;7.28;2.95;;;20.40;45.30;;;;;;5030583;28;20052;-67
2022/01/22 15:01:25;;;;;;;7.32;3.25;;;19.90;46.50;;;;;;5030666;28;20032;-67
2022/01/22 15:04:29;;;;;;;5.45;3.30;;;19.50;46.60;;;;;;5030543;28;20056;-68
2022/01/22 15:07:34;;;;;;;5.07;3.58;;;19.30;46.40;;;;;;5031047;28;20109;-67
2022/01/22 15:10:39;;;;;;;5.32;2.80;;;19.50;47.00;;;;;;5030834;28;20056;-67
2022/01/22 15:13:44;;;;;;;5.65;3.40;;;19.60;46.00;;;;;;5030629;28;20048;-68
2022/01/22 15:16:51;;;;;;;7.05;3.78;;;19.40;46.50;;;;;;5030586;28;20045;-68
2022/01/22 15:19:55;;;;;;;6.38;3.53;;;19.30;47.10;;;;;;5030575;28;20044;-67
2022/01/22 15:23:00;;;;;;;9.50;5.03;;;19.00;47.70;;;;;;5030309;28;20056;-67
2022/01/22 15:26:05;;;;;;;6.63;4.05;;;18.40;48.70;;;;;;5030303;28;20053;-67
2022/01/22 15:29:13;;;;;;;8.30;4.82;;;18.10;49.60;;;;;;5029970;28;20052;-67
2022/01/22 15:32:31;;;;;;;9.50;5.47;;;17.60;49.70;;;;;;5029062;28;20044;-68
2022/01/22 15:35:35;;;;;;;8.98;5.00;;;17.30;50.30;;;;;;5030163;28;20040;-69
2022/01/22 15:38:40;;;;;;;11.00;7.00;;;16.80;50.90;;;;;;5029965;28;20041;-69
2022/01/22 15:41:44;;;;;;;16.65;5.15;;;16.40;51.70;;;;;;5030581;28;20052;-69
2022/01/22 15:44:48;;;;;;;11.02;6.28;;;16.10;52.20;;;;;;5030087;28;20388;-69
2022/01/22 15:47:52;;;;;;;11.60;7.65;;;15.70;52.90;;;;;;5030313;28;20044;-69
2022/01/22 15:50:57;;;;;;;14.35;9.00;;;15.30;53.60;;;;;;5031069;28;20045;-69
2022/01/22 15:54:01;;;;;;;18.67;9.95;;;14.70;54.20;;;;;;5030804;28;20049;-69
2022/01/22 15:57:07;;;;;;;12.65;8.30;;;14.10;56.00;;;;;;5030359;28;20048;-69
2022/01/22 16:00:12;;;;;;;13.88;7.57;;;13.50;56.40;;;;;;5030321;28;20619;-69
2022/01/22 16:03:19;;;;;;;17.77;11.63;;;12.70;57.80;;;;;;5030499;28;20049;-69
2022/01/22 16:06:35;;;;;;;14.27;9.23;;;11.80;59.30;;;;;;5030628;28;20475;-69
2022/01/22 16:09:39;;;;;;;15.52;9.25;;;11.00;61.10;;;;;;5030024;28;20041;-69
2022/01/22 16:12:43;;;;;;;19.75;12.95;;;10.30;62.80;;;;;;5030507;28;20507;-69
2022/01/22 16:15:47;;;;;;;14.05;8.85;;;9.80;64.30;;;;;;5030734;28;20064;-69
2022/01/22 16:18:51;;;;;;;16.08;7.80;;;9.30;65.20;;;;;;5030280;28;20060;-69
2022/01/22 16:21:55;;;;;;;12.70;7.63;;;9.00;66.30;;;;;;5029865;28;20041;-69
2022/01/22 16:25:00;;;;;;;15.90;8.75;;;8.70;67.30;;;;;;5029860;28;20040;-68
2022/01/22 16:28:05;;;;;;;17.08;10.75;;;8.40;68.40;;;;;;5029559;28;20053;-69
2022/01/22 16:31:09;;;;;;;25.55;13.43;;;8.10;69.20;;;;;;5029099;28;20048;-69
2022/01/22 16:34:13;;;;;;;31.58;17.00;;;7.90;70.30;;;;;;5030405;28;20064;-69
2022/01/22 16:37:17;;;;;;;49.72;26.20;;;7.70;71.10;;;;;;5030079;28;20049;-69
2022/01/22 16:40:25;;;;;;;40.15;20.77;;;7.60;71.90;;;;;;5029688;28;20064;-68
2022/01/22 16:43:34;;;;;;;33.90;17.35;;;7.40;72.70;;;;;;5030205;28;20052;-68
2022/01/22 16:51:18;;;;;;;34.70;16.92;;;7.30;73.60;;;;;;5032226;28;20033;-68
2022/01/22 16:57:34;;;;;;;30.35;19.50;;;6.90;76.10;;;;;;5031368;28;20662;-69
2022/01/22 17:00:56;;;;;;;41.15;25.27;;;6.80;76.90;;;;;;5031278;28;20180;-68
2022/01/22 17:04:01;;;;;;;29.33;17.08;;;6.80;77.40;;;;;;5033830;28;20487;-68
2022/01/22 17:07:07;;;;;;;31.60;17.00;;;6.70;78.10;;;;;;5033529;28;20052;-68
2022/01/22 17:10:22;;;;;;;33.75;19.05;;;6.70;79.00;;;;;;5033623;28;20385;-68
2022/01/22 17:16:49;;;;;;;;;;;6.60;80.20;;;;;;5033907;28;20053;-68
2022/01/22 17:19:53;;;;;;;26.88;14.45;;;6.60;81.30;;;;;;5032689;28;19916;-68
2022/01/22 17:22:56;;;;;;;26.05;15.25;;;6.50;82.40;;;;;;5032973;28;20504;-69
2022/01/22 17:26:01;;;;;;;112.68;48.65;;;6.50;83.70;;;;;;5033431;28;20041;-69
2022/01/22 17:29:06;;;;;;;60.58;32.00;;;6.30;85.40;;;;;;5032403;28;20049;-68
2022/01/22 17:32:10;;;;;;;57.20;30.83;;;6.20;86.10;;;;;;5030396;28;20060;-68
2022/01/22 17:35:14;;;;;;;36.10;20.15;;;6.20;87.30;;;;;;5032333;28;20052;-68
2022/01/22 17:38:18;;;;;;;60.47;30.17;;;6.10;88.40;;;;;;5032366;28;20060;-68
2022/01/22 17:41:21;;;;;;;24.52;14.10;;;6.00;89.70;;;;;;5032470;28;20048;-69
2022/01/22 17:44:33;;;;;;;36.00;16.90;;;5.90;89.90;;;;;;5032100;28;20056;-68
2022/01/22 17:47:39;;;;;;;23.45;13.80;;;5.90;90.20;;;;;;5032489;28;20511;-68
2022/01/22 17:50:44;;;;;;;38.47;22.48;;;5.70;90.40;;;;;;5032571;28;20396;-68
2022/01/22 17:53:49;;;;;;;29.00;15.48;;;5.70;91.00;;;;;;5032350;28;20089;-68
2022/01/22 17:56:53;;;;;;;47.65;26.65;;;5.70;91.50;;;;;;5031839;28;20384;-68
2022/01/22 17:59:57;;;;;;;49.08;23.77;;;5.60;91.70;;;;;;5031774;28;20045;-68
2022/01/22 18:03:01;;;;;;;30.08;16.92;;;5.60;92.00;;;;;;5032368;28;20510;-68
2022/01/22 18:06:06;;;;;;;33.97;18.90;;;5.50;92.40;;;;;;5032677;28;20051;-68
2022/01/22 18:09:10;;;;;;;51.10;25.63;;;5.50;93.10;;;;;;5031779;28;20052;-68
2022/01/22 18:12:16;;;;;;;43.42;24.10;;;5.40;93.50;;;;;;5032047;28;20491;-68
2022/01/22 18:15:23;;;;;;;30.17;17.55;;;5.40;93.80;;;;;;5031648;28;20053;-68
2022/01/22 18:18:26;;;;;;;47.40;28.73;;;5.20;94.10;;;;;;5031502;28;20096;-68
2022/01/22 18:21:33;;;;;;;40.30;23.67;;;5.20;94.60;;;;;;5031965;28;20290;-68
2022/01/22 18:24:37;;;;;;;35.53;19.23;;;5.20;95.00;;;;;;5031994;28;20045;-68
2022/01/22 18:27:41;;;;;;;51.67;25.52;;;5.20;95.60;;;;;;5031344;28;20048;-69